Time;durP1;ratioP1;P1;durP2;ratioP2;P2;SDS_P1;SDS_P2;PMS_P1;PMS_P2;Temp;Humidity;BMP_temperature;BMP_pressure;BME280_temperature;BME280_humidity;BME280_pressure;Samples;Min_cycle;Max_cycle;Signal;HPM_P1;HPM_P2
2022/04/21 00:00:18;;;;;;;3.07;2.10;;;;;;;8.70;62.80;100741.94;4993787;28;20211;-79
2022/04/21 00:02:45;;;;;;;3.30;2.30;;;;;;;8.61;63.13;100756.53;4994040;28;20255;-81
2022/04/21 00:05:15;;;;;;;3.27;2.23;;;;;;;8.49;62.90;100743.06;4993830;28;20235;-83
2022/04/21 00:07:41;;;;;;;2.50;2.10;;;;;;;8.40;62.71;100739.13;4993804;28;20218;-81
2022/04/21 00:10:09;;;;;;;2.20;2.00;;;;;;;8.33;63.19;100740.38;4993713;28;20207;-82
2022/04/21 00:12:36;;;;;;;3.87;2.47;;;;;;;8.26;63.30;100734.50;4993058;28;20210;-80
2022/04/21 00:15:03;;;;;;;3.77;1.93;;;;;;;8.22;63.55;100740.06;4993777;28;20238;-83
2022/04/21 00:17:30;;;;;;;2.87;1.87;;;;;;;8.19;63.89;100733.13;4994031;28;20211;-82
2022/04/21 00:19:56;;;;;;;2.70;2.50;;;;;;;8.14;64.35;100732.47;4993620;28;20298;-82
2022/04/21 00:25:09;;;;;;;2.60;2.27;;;;;;;8.11;65.08;100734.44;4993189;28;20243;-81
2022/04/21 00:27:38;;;;;;;2.80;2.37;;;;;;;8.09;65.22;100739.81;4993747;28;20265;-82
2022/04/21 00:30:07;;;;;;;2.70;2.50;;;;;;;8.08;65.66;100732.78;4993569;28;20265;-80
2022/04/21 00:32:33;;;;;;;2.83;2.50;;;;;;;8.06;65.40;100734.66;4994125;28;20256;-82
2022/04/21 00:35:00;;;;;;;2.83;2.23;;;;;;;8.05;65.40;100726.81;4994385;28;20207;-83
2022/04/21 00:37:28;;;;;;;3.23;2.67;;;;;;;8.02;65.54;100730.47;4994300;28;20207;-81
2022/04/21 00:39:55;;;;;;;3.67;2.50;;;;;;;7.99;65.76;100731.50;4994674;28;20211;-82
2022/04/21 00:42:22;;;;;;;4.60;2.40;;;;;;;7.97;66.30;100729.84;4994569;28;20208;-82
2022/04/21 00:44:49;;;;;;;3.07;2.43;;;;;;;7.96;66.17;100728.13;4994238;28;20253;-83
2022/04/21 00:47:18;;;;;;;4.47;2.90;;;;;;;7.93;65.91;100728.28;4994250;28;20210;-80
2022/04/21 00:49:45;;;;;;;4.87;2.70;;;;;;;7.91;66.67;100730.16;4993982;28;20251;-82
2022/04/21 00:52:12;;;;;;;3.93;2.60;;;;;;;7.90;66.47;100728.44;4994147;28;20203;-81
2022/04/21 00:54:41;;;;;;;2.87;2.57;;;;;;;7.87;66.96;100721.53;4993928;28;20220;-81
2022/04/21 00:57:07;;;;;;;4.83;2.80;;;;;;;7.84;66.69;100723.47;4993993;28;20214;-82
2022/04/21 00:59:34;;;;;;;3.00;2.70;;;;;;;7.81;67.21;100729.78;4994500;28;20234;-82
2022/04/21 01:04:48;;;;;;;5.77;2.90;;;;;;;7.73;66.87;100726.63;4994785;28;20323;-83
2022/04/21 01:07:15;;;;;;;4.23;2.97;;;;;;;7.71;67.42;100722.34;4994342;28;20315;-80
2022/04/21 01:09:43;;;;;;;4.60;2.97;;;;;;;7.66;67.30;100719.94;4994561;28;20208;-82
2022/04/21 01:12:10;;;;;;;4.10;3.13;;;;;;;7.62;67.52;100724.53;4994990;28;20208;-80
2022/04/21 01:14:38;;;;;;;3.33;2.90;;;;;;;7.59;67.84;100721.19;4996255;28;20210;-80
2022/04/21 01:17:04;;;;;;;7.23;2.77;;;;;;;7.56;67.85;100721.31;4996026;28;20644;-81
2022/04/21 01:19:31;;;;;;;4.07;3.23;;;;;;;7.52;67.77;100715.34;4996150;28;20204;-80
2022/04/21 01:21:59;;;;;;;3.80;3.00;;;;;;;7.51;68.01;100715.41;4997477;28;20203;-81
2022/04/21 01:24:26;;;;;;;5.83;3.30;;;;;;;7.47;67.39;100721.78;4996270;28;20211;-81
2022/04/21 01:26:54;;;;;;;4.40;3.00;;;;;;;7.44;67.61;100717.50;4996553;28;20251;-81
2022/04/21 01:29:21;;;;;;;3.40;3.10;;;;;;;7.40;67.98;100715.94;4994926;28;20213;-80
2022/04/21 01:31:48;;;;;;;3.73;3.33;;;;;;;7.37;68.29;100705.47;4994379;28;20270;-80
2022/04/21 01:34:14;;;;;;;4.87;3.33;;;;;;;7.35;68.27;100707.34;4993980;28;20214;-80
2022/04/21 01:42:07;;;;;;;4.77;3.20;;;;;;;7.23;68.58;100713.25;4994516;28;20226;-80
2022/04/21 01:44:34;;;;;;;4.37;2.90;;;;;;;7.18;68.26;100715.25;4994460;28;20281;-80
2022/04/21 01:47:00;;;;;;;3.30;3.00;;;;;;;7.13;68.71;100715.50;4994069;28;20602;-80
2022/04/21 01:49:27;;;;;;;5.23;3.30;;;;;;;7.09;68.43;100713.91;4994266;28;20212;-81
2022/04/21 01:51:53;;;;;;;4.23;3.03;;;;;;;7.05;68.79;100706.19;4994562;28;20207;-80
2022/04/21 01:54:20;;;;;;;4.73;3.57;;;;;;;7.02;68.64;100707.19;4994259;28;20214;-80
2022/04/21 01:56:48;;;;;;;4.47;3.70;;;;;;;6.96;68.69;100705.72;4994839;28;20224;-80
2022/04/21 01:59:14;;;;;;;6.13;2.83;;;;;;;6.93;68.77;100713.78;4995097;28;20831;-80
2022/04/21 02:01:41;;;;;;;3.83;2.93;;;;;;;6.91;68.83;100706.84;4994478;28;20203;-80
2022/04/21 02:04:07;;;;;;;4.90;3.33;;;;;;;6.85;68.66;100715.94;4994320;28;20813;-80
2022/04/21 02:06:34;;;;;;;4.50;3.10;;;;;;;6.81;68.76;100709.06;4994276;28;20235;-80
2022/04/21 02:09:01;;;;;;;3.80;2.97;;;;;;;6.75;68.81;100709.34;4994584;28;20231;-80
2022/04/21 02:11:28;;;;;;;3.60;3.30;;;;;;;6.69;69.17;100707.00;4995313;28;20204;-80
2022/04/21 02:13:55;;;;;;;7.93;3.73;;;;;;;6.65;68.96;100717.78;4994334;28;20196;-80
2022/04/21 02:16:22;;;;;;;6.13;3.87;;;;;;;6.61;69.35;100712.66;4995584;28;20273;-80
2022/04/21 02:18:49;;;;;;;5.10;3.70;;;;;;;6.58;69.44;100714.56;4996401;28;20200;-80
2022/04/21 02:21:15;;;;;;;4.20;3.53;;;;;;;6.55;69.38;100712.94;4996063;28;20206;-80
2022/04/21 02:23:42;;;;;;;5.37;3.93;;;;;;;6.51;69.54;100700.75;4995886;28;20962;-80
2022/04/21 02:26:09;;;;;;;3.70;3.30;;;;;;;6.48;69.86;100707.97;4995151;28;20227;-80
2022/04/21 02:28:35;;;;;;;4.93;4.10;;;;;;;6.45;69.62;100705.50;4992695;28;20297;-81
2022/04/21 02:31:03;;;;;;;3.83;3.37;;;;;;;6.41;69.96;100712.69;4997935;28;20202;-80
2022/04/21 02:33:30;;;;;;;3.53;3.23;;;;;;;6.37;70.11;100704.97;4993904;28;20214;-80
2022/04/21 02:35:57;;;;;;;4.00;3.20;;;;;;;6.32;69.98;100705.16;4994613;28;20211;-81
2022/04/21 02:38:23;;;;;;;5.07;3.33;;;;;;;6.27;70.01;100700.06;4998276;28;20203;-80
2022/04/21 02:40:50;;;;;;;4.80;3.70;;;;;;;6.22;69.89;100695.94;4994425;28;20214;-80
2022/04/21 02:43:17;;;;;;;4.57;3.60;;;;;;;6.18;70.20;100692.56;4994203;28;20212;-80
2022/04/21 02:45:43;;;;;;;4.43;3.23;;;;;;;6.13;70.45;100697.19;5007974;28;20230;-80
2022/04/21 02:48:12;;;;;;;3.43;3.07;;;;;;;6.11;70.30;100687.59;5018250;28;20217;-81
2022/04/21 02:50:40;;;;;;;3.37;3.07;;;;;;;6.06;70.67;100679.03;5017943;28;20215;-80
2022/04/21 02:53:07;;;;;;;4.77;3.20;;;;;;;6.01;70.92;100681.88;5016921;28;20281;-80
2022/04/21 02:58:30;;;;;;;5.80;4.03;;;;;;;5.84;70.35;100679.06;5013333;28;20252;-80
2022/04/21 03:00:56;;;;;;;4.13;2.93;;;;;;;5.75;70.76;100682.09;5000270;28;20752;-80
2022/04/21 03:03:24;;;;;;;4.50;3.27;;;;;;;5.69;70.77;100674.47;4996515;28;20239;-80
2022/04/21 03:05:51;;;;;;;4.33;3.17;;;;;;;5.63;71.16;100670.28;4996678;28;20282;-80
2022/04/21 03:08:17;;;;;;;4.07;3.60;;;;;;;5.57;70.93;100671.38;4996876;28;20596;-80
2022/04/21 03:10:44;;;;;;;5.90;3.40;;;;;;;5.54;71.30;100671.56;4997571;28;20207;-80
2022/04/21 03:13:10;;;;;;;4.27;3.37;;;;;;;5.50;71.62;100664.66;4996417;28;20211;-80
2022/04/21 03:15:37;;;;;;;4.33;3.93;;;;;;;5.47;71.76;100670.06;4996898;28;20255;-80
2022/04/21 03:18:04;;;;;;;4.57;3.40;;;;;;;5.45;71.88;100663.13;4996178;28;20218;-80
2022/04/21 03:25:59;;;;;;;4.27;3.50;;;;;;;5.40;72.20;100649.25;4995330;28;20532;-80
2022/04/21 03:28:26;;;;;;;6.90;3.97;;;;;;;5.38;72.22;100654.59;4996664;28;20211;-81
2022/04/21 03:30:52;;;;;;;4.20;3.80;;;;;;;5.30;72.01;100659.34;4996525;28;20568;-80
2022/04/21 03:33:20;;;;;;;4.63;3.70;;;;;;;5.22;71.75;100658.81;4984744;28;20216;-80
2022/04/21 03:35:48;;;;;;;3.20;2.80;;;;;;;5.12;71.50;100660.13;4987338;28;20695;-80
2022/04/21 03:38:15;;;;;;;3.37;3.07;;;;;;;5.02;71.29;100659.59;4993702;28;20215;-80
2022/04/21 03:40:41;;;;;;;4.77;3.80;;;;;;;4.95;71.98;100654.66;4986302;28;20207;-80
2022/04/21 03:43:08;;;;;;;4.43;4.03;;;;;;;4.89;71.88;100661.88;4984478;28;20275;-81
2022/04/21 03:45:35;;;;;;;4.60;3.80;;;;;;;4.84;72.13;100669.13;4992501;28;20255;-81
2022/04/21 03:48:02;;;;;;;5.13;3.80;;;;;;;4.81;72.56;100669.28;4991880;28;20207;-80
2022/04/21 03:50:31;;;;;;;6.00;4.10;;;;;;;4.79;72.89;100676.38;4983990;28;20693;-81
2022/04/21 03:52:59;;;;;;;6.67;4.77;;;;;;;4.78;72.77;100660.59;4989192;28;20207;-80
2022/04/21 03:55:26;;;;;;;8.90;4.70;;;;;;;4.78;73.97;100666.75;4986370;28;20237;-81
2022/04/21 03:57:52;;;;;;;5.30;4.47;;;;;;;4.82;73.83;100668.34;4992521;28;20207;-80
2022/04/21 04:00:19;;;;;;;6.90;4.70;;;;;;;4.86;74.23;100669.91;4990351;28;20208;-80
2022/04/21 04:02:46;;;;;;;5.67;4.77;;;;;;;4.91;74.81;100676.81;4979854;28;20210;-80
2022/04/21 04:05:12;;;;;;;6.80;5.27;;;;;;;4.94;74.66;100689.88;4984429;28;20731;-80
2022/04/21 04:13:08;;;;;;;6.07;4.70;;;;;;;5.00;75.21;100677.31;4980931;28;20211;-80
2022/04/21 04:15:35;;;;;;;9.07;5.03;;;;;;;5.02;75.45;100671.94;4991513;28;20631;-79
2022/04/21 04:18:01;;;;;;;7.17;5.17;;;;;;;5.03;75.82;100665.75;4995073;28;20595;-80
2022/04/21 04:20:28;;;;;;;11.17;5.87;;;;;;;5.03;75.96;100666.59;4996280;28;20744;-80
2022/04/21 04:22:54;;;;;;;6.57;5.10;;;;;;;5.05;76.07;100670.06;4981123;28;20295;-80
2022/04/21 04:25:21;;;;;;;5.00;4.50;;;;;;;5.06;76.34;100670.91;4990507;28;20231;-81
2022/04/21 04:27:49;;;;;;;6.53;4.57;;;;;;;5.05;75.54;100679.75;4985707;28;20693;-79
2022/04/21 04:30:16;;;;;;;4.20;3.80;;;;;;;5.04;75.76;100675.38;4996105;28;20212;-80
2022/04/21 04:32:42;;;;;;;8.50;4.27;;;;;;;5.01;75.65;100667.63;4999097;28;20211;-80
2022/04/21 04:35:09;;;;;;;8.23;4.97;;;;;;;4.98;76.04;100665.97;4989127;28;20231;-81
2022/04/21 04:37:36;;;;;;;7.93;4.90;;;;;;;4.98;75.83;100665.09;4990263;28;20205;-80
2022/04/21 04:40:03;;;;;;;7.50;5.23;;;;;;;4.98;75.99;100662.47;4991237;28;20315;-80
2022/04/21 04:42:28;;;;;;;4.67;4.13;;;;;;;4.98;76.45;100668.59;4987508;28;20212;-79
2022/04/21 04:47:37;;;;;;;6.40;4.60;;;;;;;5.03;76.35;100677.16;4994351;28;20255;-80
2022/04/21 04:50:04;;;;;;;6.10;5.03;;;;;;;5.04;76.88;100667.47;4995484;28;20219;-80
2022/04/21 04:52:30;;;;;;;6.40;4.20;;;;;;;5.07;76.73;100678.78;4988486;28;20201;-80
2022/04/21 04:54:57;;;;;;;5.27;4.77;;;;;;;5.08;76.82;100677.84;4993156;28;20462;-79
2022/04/21 04:57:24;;;;;;;7.17;4.63;;;;;;;5.12;76.88;100673.31;4996913;28;20267;-80
2022/04/21 04:59:50;;;;;;;6.97;4.27;;;;;;;5.13;76.93;100680.31;4990783;28;20295;-79
2022/04/21 05:02:20;;;;;;;6.63;4.47;;;;;;;5.15;77.18;100674.06;4983913;28;20207;-80
2022/04/21 05:04:46;;;;;;;7.37;4.93;;;;;;;5.17;77.16;100669.56;4982691;28;20220;-80
2022/04/21 05:07:14;;;;;;;6.43;5.03;;;;;;;5.19;77.39;100674.78;4990538;28;20227;-79
2022/04/21 05:09:41;;;;;;;7.40;4.30;;;;;;;5.21;77.57;100683.47;4987791;28;20195;-80
2022/04/21 05:12:08;;;;;;;5.90;4.40;;;;;;;5.24;77.73;100681.59;4992002;28;20282;-80
2022/04/21 05:14:36;;;;;;;6.37;5.10;;;;;;;5.27;77.48;100677.97;4993337;28;20677;-80
2022/04/21 05:17:03;;;;;;;5.80;4.57;;;;;;;5.30;77.26;100685.75;4986766;28;20223;-80
2022/04/21 05:19:31;;;;;;;7.60;4.80;;;;;;;5.34;77.65;100690.00;4986986;28;20313;-80
2022/04/21 05:22:02;;;;;;;7.70;4.80;;;;;;;5.37;78.03;100694.31;4986804;28;20211;-80
2022/04/21 05:24:31;;;;;;;7.27;4.80;;;;;;;5.39;77.68;100688.00;4982012;28;20212;-80
2022/04/21 05:26:58;;;;;;;7.03;4.87;;;;;;;5.42;77.63;100689.66;4984866;28;20227;-80
2022/04/21 05:32:11;;;;;;;9.23;4.47;;;;;;;5.51;77.69;100687.53;4984984;28;20577;-80
2022/04/21 05:34:40;;;;;;;7.77;4.93;;;;;;;5.55;78.25;100685.63;4983948;28;20561;-81
2022/04/21 05:37:08;;;;;;;10.00;4.50;;;;;;;5.61;77.95;100689.75;4987836;28;20722;-80
2022/04/21 05:39:35;;;;;;;6.57;4.57;;;;;;;5.65;78.24;100683.44;4980701;28;20208;-81
2022/04/21 05:42:02;;;;;;;5.90;4.33;;;;;;;5.69;77.69;100691.16;4990248;28;20384;-81
2022/04/21 05:44:29;;;;;;;7.43;4.47;;;;;;;5.73;78.14;100694.53;4984661;28;20211;-80
2022/04/21 05:46:56;;;;;;;6.30;4.77;;;;;;;5.78;77.96;100692.53;4988160;28;20231;-80
2022/04/21 05:49:24;;;;;;;9.40;4.70;;;;;;;5.81;77.85;100690.63;4989807;28;20247;-81
2022/04/21 05:51:53;;;;;;;6.30;4.00;;;;;;;5.85;77.78;100688.72;4993356;28;20559;-81
2022/04/21 05:54:20;;;;;;;7.70;4.60;;;;;;;5.89;77.48;100693.00;4979358;28;20209;-81
2022/04/21 05:56:48;;;;;;;5.07;4.40;;;;;;;5.91;77.31;100693.78;4983603;28;20223;-81
2022/04/21 05:59:14;;;;;;;6.90;4.73;;;;;;;5.95;77.11;100699.78;4982556;28;20631;-80
2022/04/21 06:01:41;;;;;;;5.83;4.77;;;;;;;5.98;77.18;100694.34;4987227;28;20208;-81
2022/04/21 06:04:07;;;;;;;6.07;5.27;;;;;;;6.02;77.08;100709.16;4983274;28;20662;-80
2022/04/21 06:06:34;;;;;;;5.87;5.00;;;;;;;6.06;77.03;100700.19;4981611;28;20240;-80
2022/04/21 06:09:02;;;;;;;5.97;5.03;;;;;;;6.09;77.14;100711.47;4988175;28;20214;-80
2022/04/21 06:11:33;;;;;;;6.17;4.50;;;;;;;6.13;77.04;100704.25;4987574;28;20203;-80
2022/04/21 06:13:59;;;;;;;10.63;5.37;;;;;;;6.15;77.07;100697.97;4993990;28;20258;-80
2022/04/21 06:16:26;;;;;;;8.40;4.20;;;;;;;6.19;76.50;100704.00;4992488;28;20228;-81
2022/04/21 06:18:52;;;;;;;12.37;4.93;;;;;;;6.24;76.97;100702.00;4987414;28;20195;-80
2022/04/21 06:21:19;;;;;;;6.77;4.37;;;;;;;6.27;76.70;100701.84;4996844;28;20217;-79
2022/04/21 06:23:45;;;;;;;5.10;4.40;;;;;;;6.31;76.67;100703.44;4997288;28;20217;-79
2022/04/21 06:26:13;;;;;;;5.17;4.37;;;;;;;6.34;76.96;100707.75;4996477;28;20245;-82
2022/04/21 06:28:41;;;;;;;6.03;4.67;;;;;;;6.37;76.65;100703.19;4997705;28;20210;-79
2022/04/21 06:31:08;;;;;;;6.07;4.37;;;;;;;6.39;76.46;100695.19;4997034;28;20258;-82
2022/04/21 06:33:34;;;;;;;13.30;5.03;;;;;;;6.42;76.51;100695.91;4997775;28;20294;-80
2022/04/21 06:36:03;;;;;;;7.53;4.07;;;;;;;6.45;76.10;100695.72;5008629;28;20230;-80
2022/04/21 06:38:29;;;;;;;6.47;4.17;;;;;;;6.48;76.32;100690.31;4997043;28;20200;-81
2022/04/21 06:40:56;;;;;;;7.87;5.10;;;;;;;6.51;76.25;100700.75;4997909;28;20310;-79
2022/04/21 06:48:52;;;;;;;4.97;3.97;;;;;;;6.62;75.75;100708.22;4996544;28;20771;-80
2022/04/21 06:51:19;;;;;;;6.80;4.30;;;;;;;6.63;75.95;100710.75;4996785;28;20226;-77
2022/04/21 06:53:45;;;;;;;6.53;4.30;;;;;;;6.63;75.33;100713.41;4986649;28;20208;-79
2022/04/21 06:56:12;;;;;;;5.77;4.33;;;;;;;6.65;75.10;100721.28;4977040;28;20236;-81
2022/04/21 06:58:41;;;;;;;5.47;4.20;;;;;;;6.65;75.35;100712.47;4976442;28;20231;-78
2022/04/21 07:01:07;;;;;;;7.10;4.93;;;;;;;6.65;74.94;100713.34;4977395;28;20236;-79
2022/04/21 07:03:35;;;;;;;7.07;4.40;;;;;;;6.66;75.15;100703.63;4976873;28;20219;-80
2022/04/21 07:06:01;;;;;;;5.57;3.90;;;;;;;6.69;75.20;100717.56;4977352;28;20236;-81
2022/04/21 07:08:28;;;;;;;6.20;4.40;;;;;;;6.73;75.15;100707.72;4976609;28;20239;-80
2022/04/21 07:10:54;;;;;;;4.93;4.00;;;;;;;6.74;74.70;100702.34;4978107;28;20638;-81
2022/04/21 07:13:22;;;;;;;7.60;4.47;;;;;;;6.80;74.73;100704.72;4979587;28;20848;-80
2022/04/21 07:15:50;;;;;;;6.50;4.47;;;;;;;6.83;75.18;100707.19;4979917;28;20355;-80
2022/04/21 07:18:16;;;;;;;5.90;4.83;;;;;;;6.89;74.58;100716.66;4978968;28;20247;-79
2022/04/21 07:20:43;;;;;;;6.60;4.93;;;;;;;6.91;74.54;100726.25;4997351;28;20273;-80
2022/04/21 07:23:09;;;;;;;5.70;4.00;;;;;;;6.93;74.76;100721.72;4995631;28;20207;-82
2022/04/21 07:25:36;;;;;;;5.47;4.20;;;;;;;6.98;74.61;100721.53;4996362;28;20227;-83
2022/04/21 07:28:03;;;;;;;5.40;4.50;;;;;;;7.05;74.64;100722.06;4994493;28;20228;-81
2022/04/21 07:30:29;;;;;;;5.77;4.30;;;;;;;7.10;74.69;100722.72;4993630;28;20215;-81
2022/04/21 07:32:57;;;;;;;4.50;3.70;;;;;;;7.16;74.21;100714.50;4993971;28;20705;-81
2022/04/21 07:35:24;;;;;;;7.27;4.70;;;;;;;7.23;73.76;100723.84;4993860;28;20230;-82
2022/04/21 07:37:51;;;;;;;6.40;4.77;;;;;;;7.29;73.90;100712.97;5011466;28;20199;-81
2022/04/21 07:40:20;;;;;;;5.50;4.23;;;;;;;7.35;74.01;100712.63;5014010;28;20218;-82
2022/04/21 07:42:47;;;;;;;4.20;3.77;;;;;;;7.42;73.43;100708.75;5014425;28;20290;-82
2022/04/21 07:45:14;;;;;;;7.30;4.10;;;;;;;7.50;73.03;100709.25;5014546;28;20771;-81
2022/04/21 07:47:40;;;;;;;6.20;3.90;;;;;;;7.58;73.48;100715.00;5013905;28;20592;-81
2022/04/21 07:50:09;;;;;;;5.37;4.10;;;;;;;7.64;73.40;100717.38;5013249;28;20578;-81
2022/04/21 07:55:23;;;;;;;6.70;4.40;;;;;;;7.81;72.32;100713.00;5013531;28;20224;-82
2022/04/21 07:57:52;;;;;;;5.17;4.47;;;;;;;7.89;72.19;100708.16;5013654;28;20205;-82
2022/04/21 08:00:19;;;;;;;6.77;4.37;;;;;;;7.96;72.06;100707.78;5013563;28;20219;-82
2022/04/21 08:02:48;;;;;;;6.90;4.40;;;;;;;8.05;72.24;100703.81;5013389;28;20218;-81
2022/04/21 08:05:19;;;;;;;4.73;3.60;;;;;;;8.15;71.71;100712.13;5013489;28;20245;-83
2022/04/21 08:07:46;;;;;;;6.00;4.60;;;;;;;8.24;71.73;100709.81;5014468;28;20215;-82
2022/04/21 08:10:14;;;;;;;5.77;4.23;;;;;;;8.33;70.88;100713.84;5014288;28;20207;-83
2022/04/21 08:12:42;;;;;;;4.20;3.80;;;;;;;8.43;70.37;100717.72;5015274;28;20206;-83
2022/04/21 08:15:09;;;;;;;7.83;4.93;;;;;;;8.52;70.41;100709.28;5014735;28;20253;-82
2022/04/21 08:17:36;;;;;;;6.73;4.50;;;;;;;8.66;70.37;100703.19;5014683;28;20203;-83
2022/04/21 08:20:05;;;;;;;7.27;5.17;;;;;;;8.85;70.52;100701.25;4999505;28;20278;-83
2022/04/21 08:22:33;;;;;;;7.67;4.40;;;;;;;9.01;70.61;100699.47;4994226;28;20690;-83
2022/04/21 08:33:12;;;;;;;5.13;4.20;;;;;;;9.71;68.26;100702.50;4993590;28;20190;-83
2022/04/21 08:35:38;;;;;;;6.10;3.93;;;;;;;9.84;67.55;100697.34;4993193;28;20593;-82
2022/04/21 08:38:07;;;;;;;6.30;4.40;;;;;;;10.02;67.17;100698.91;5013530;28;20199;-81
2022/04/21 08:40:35;;;;;;;6.33;4.00;;;;;;;10.15;66.25;100699.00;5013972;28;20237;-82
2022/04/21 08:43:08;;;;;;;9.50;5.00;;;;;;;10.32;66.15;100699.72;5013186;28;20207;-82
2022/04/21 08:45:35;;;;;;;5.73;4.17;;;;;;;10.52;65.89;100703.81;5013837;28;20241;-82
2022/04/21 08:48:04;;;;;;;6.07;4.50;;;;;;;10.71;65.66;100699.06;5013146;28;20689;-83
2022/04/21 08:50:31;;;;;;;8.57;4.40;;;;;;;10.86;64.43;100697.22;5013873;28;20218;-82
2022/04/21 08:52:59;;;;;;;5.47;4.63;;;;;;;10.94;63.76;100697.56;5013141;28;20562;-82
2022/04/21 08:55:28;;;;;;;5.73;4.50;;;;;;;11.01;63.47;100692.72;5012908;28;20684;-81
2022/04/21 08:57:56;;;;;;;6.03;4.10;;;;;;;11.10;63.25;100695.66;5012502;28;20199;-81
2022/04/21 09:00:23;;;;;;;6.43;4.37;;;;;;;11.29;62.76;100689.09;5012364;28;20221;-81
2022/04/21 09:02:50;;;;;;;6.83;4.17;;;;;;;11.46;62.08;100694.22;5012738;28;20214;-81
2022/04/21 09:05:20;;;;;;;5.73;4.30;;;;;;;11.51;60.85;100700.06;5012450;28;20579;-82
2022/04/21 09:07:49;;;;;;;9.03;4.47;;;;;;;11.53;60.45;100699.97;5012023;28;20263;-82
2022/04/21 09:10:16;;;;;;;7.33;4.50;;;;;;;11.57;61.08;100697.00;5011825;28;20704;-82
2022/04/21 09:12:46;;;;;;;5.70;4.23;;;;;;;11.65;60.41;100689.31;5011327;28;20570;-82
2022/04/21 09:15:18;;;;;;;5.77;3.87;;;;;;;11.69;59.77;100700.66;5011620;28;20236;-82
2022/04/21 09:17:46;;;;;;;6.43;3.97;;;;;;;11.74;59.96;100698.53;5011719;28;20197;-82
2022/04/21 09:20:15;;;;;;;6.63;4.03;;;;;;;11.79;59.82;100693.78;4996145;28;20205;-83
2022/04/21 09:22:43;;;;;;;6.07;4.57;;;;;;;11.87;59.87;100693.25;4993100;28;20210;-83
2022/04/21 09:25:11;;;;;;;8.40;4.40;;;;;;;11.93;59.67;100688.38;4992567;28;20233;-83
2022/04/21 09:27:44;;;;;;;6.57;4.53;;;;;;;12.04;59.02;100687.63;4992434;28;20228;-82
2022/04/21 09:30:13;;;;;;;6.17;4.37;;;;;;;12.09;59.04;100681.00;4992639;28;20191;-82
2022/04/21 09:32:41;;;;;;;7.83;4.07;;;;;;;12.21;59.23;100686.44;4992354;28;20210;-82
2022/04/21 09:35:09;;;;;;;5.87;4.13;;;;;;;12.28;58.45;100685.06;4991059;28;20226;-82
2022/04/21 09:37:49;;;;;;;5.90;3.93;;;;;;;12.34;58.54;100695.34;4991552;28;20634;-83
2022/04/21 09:40:17;;;;;;;8.30;4.43;;;;;;;12.36;58.08;100685.41;4991961;28;20196;-82
2022/04/21 09:42:54;;;;;;;7.73;4.20;;;;;;;12.38;58.52;100695.00;4992017;28;20580;-82
2022/04/21 09:48:12;;;;;;;4.60;3.97;;;;;;;12.48;57.70;100695.22;4990547;28;20273;-82
2022/04/21 09:50:42;;;;;;;6.10;4.27;;;;;;;12.52;57.62;100697.56;4991012;28;20574;-82
2022/04/21 09:53:08;;;;;;;4.47;3.77;;;;;;;12.52;57.12;100692.22;4991898;28;20630;-83
2022/04/21 09:55:35;;;;;;;6.60;3.83;;;;;;;12.53;57.24;100701.09;4992350;28;20227;-83
2022/04/21 09:58:07;;;;;;;7.87;4.70;;;;;;;12.52;56.71;100694.03;4993084;28;20650;-82
2022/04/21 10:00:36;;;;;;;7.23;4.20;;;;;;;12.50;56.95;100695.97;4993337;28;20214;-83
2022/04/21 10:03:04;;;;;;;5.23;4.30;;;;;;;12.51;57.15;100690.53;4993054;28;20646;-82
2022/04/21 10:05:31;;;;;;;6.93;4.17;;;;;;;12.55;57.12;100692.94;4992634;28;20223;-83
2022/04/21 10:08:00;;;;;;;5.57;3.90;;;;;;;12.58;56.87;100698.06;4992751;28;20293;-83
2022/04/21 10:10:29;;;;;;;5.87;4.67;;;;;;;12.59;56.97;100697.97;4992845;28;20690;-82
2022/04/21 10:12:56;;;;;;;6.40;4.43;;;;;;;12.59;56.58;100700.66;4993198;28;20223;-82
2022/04/21 10:15:25;;;;;;;7.23;5.07;;;;;;;12.63;56.89;100687.94;4992781;28;20235;-81
2022/04/21 10:17:51;;;;;;;6.63;4.37;;;;;;;12.70;56.93;100690.06;4992558;28;20211;-82
2022/04/21 10:20:21;;;;;;;6.97;4.10;;;;;;;12.76;56.63;100686.94;4993020;28;20200;-82
2022/04/21 10:22:49;;;;;;;5.10;4.60;;;;;;;12.79;56.46;100686.72;4992176;28;20211;-82
2022/04/21 10:25:15;;;;;;;5.57;3.90;;;;;;;12.88;56.81;100695.06;4992452;28;20239;-82
2022/04/21 10:27:45;;;;;;;5.53;4.03;;;;;;;12.93;56.55;100683.03;4991579;28;20237;-82
2022/04/21 10:30:14;;;;;;;10.07;4.33;;;;;;;13.01;56.47;100671.81;4991735;28;20211;-82
2022/04/21 10:32:53;;;;;;;6.83;4.00;;;;;;;13.07;56.34;100674.91;4992257;28;20592;-82
2022/04/21 10:35:47;;;;;;;7.23;4.03;;;;;;;13.15;56.01;100660.97;4991740;28;20231;-82
2022/04/21 10:38:26;;;;;;;7.17;4.17;;;;;;;13.20;56.17;100666.84;4968650;28;20203;-82
2022/04/21 10:40:57;;;;;;;7.53;4.53;;;;;;;13.25;55.98;100667.38;4974077;28;20267;-82
2022/04/21 10:43:25;;;;;;;5.87;4.47;;;;;;;13.33;56.36;100672.97;4973371;28;20311;-82
2022/04/21 10:46:04;;;;;;;7.57;4.40;;;;;;;13.37;55.54;100663.78;4973164;28;20228;-81
2022/04/21 10:48:41;;;;;;;5.03;4.53;;;;;;;13.39;55.74;100659.16;4972447;28;20291;-82
2022/04/21 10:51:08;;;;;;;5.70;4.00;;;;;;;13.43;55.77;100666.00;4972520;28;20212;-82
2022/04/21 10:59:29;;;;;;;10.87;4.37;;;;;;;13.64;55.59;100652.78;4972690;28;20615;-81
2022/04/21 11:01:56;;;;;;;6.40;4.20;;;;;;;13.70;55.58;100663.03;4973414;28;20204;-81
2022/04/21 11:04:27;;;;;;;4.90;4.40;;;;;;;13.76;55.36;100651.88;4973176;28;20295;-81
2022/04/21 11:07:06;;;;;;;4.57;4.17;;;;;;;13.83;55.92;100663.81;4976462;28;20315;-81
2022/04/21 11:09:50;;;;;;;5.63;4.20;;;;;;;13.88;55.10;100650.94;4976565;28;20234;-82
2022/04/21 11:12:18;;;;;;;6.30;4.33;;;;;;;13.90;55.00;100657.03;4976148;28;20188;-81
2022/04/21 11:14:45;;;;;;;5.23;4.07;;;;;;;13.92;54.87;100664.09;4976062;28;20208;-81
2022/04/21 11:17:12;;;;;;;5.93;3.93;;;;;;;13.90;54.18;100654.34;4976415;28;20322;-80
2022/04/21 11:19:44;;;;;;;6.13;4.30;;;;;;;13.88;54.37;100648.25;4975941;28;20208;-81
2022/04/21 11:22:13;;;;;;;6.27;4.13;;;;;;;13.89;54.87;100652.63;4975814;28;20451;-81
2022/04/21 11:25:03;;;;;;;8.93;4.30;;;;;;;13.94;55.18;100646.94;4975331;28;20208;-80
2022/04/21 11:27:31;;;;;;;8.33;4.53;;;;;;;13.97;55.09;100645.84;4974896;28;20212;-80
2022/04/21 11:30:02;;;;;;;5.90;4.50;;;;;;;14.01;54.57;100647.28;4975561;28;20655;-82
2022/04/21 11:32:29;;;;;;;5.87;4.40;;;;;;;14.01;54.45;100645.47;4975198;28;20574;-80
2022/04/21 11:35:02;;;;;;;7.67;4.13;;;;;;;14.01;54.62;100642.78;4985544;28;20195;-83
2022/04/21 11:37:50;;;;;;;6.03;4.30;;;;;;;14.00;53.94;100637.56;4999148;28;20206;-81
2022/04/21 11:40:25;;;;;;;6.97;4.13;;;;;;;14.00;54.17;100637.56;4995485;28;20211;-83
2022/04/21 11:42:54;;;;;;;6.07;4.20;;;;;;;13.99;54.51;100642.06;4995517;28;20585;-81
2022/04/21 11:45:22;;;;;;;7.50;4.00;;;;;;;14.00;54.19;100646.44;4994464;28;20232;-83
2022/04/21 11:47:48;;;;;;;6.73;4.33;;;;;;;13.99;54.43;100643.88;4995568;28;20330;-82
2022/04/21 11:50:20;;;;;;;5.60;3.67;;;;;;;13.99;53.93;100646.56;4994970;28;20872;-83
2022/04/21 11:52:52;;;;;;;5.20;3.63;;;;;;;13.96;53.76;100638.78;4995123;28;20258;-82
2022/04/21 11:55:20;;;;;;;5.33;3.83;;;;;;;13.92;53.77;100635.50;4995584;28;20228;-82
2022/04/21 11:57:47;;;;;;;5.70;4.27;;;;;;;13.88;54.11;100631.34;4987646;28;20210;-81
2022/04/21 12:00:17;;;;;;;4.37;3.73;;;;;;;13.86;54.69;100641.31;4984559;28;20212;-84
2022/04/21 12:08:16;;;;;;;6.27;4.00;;;;;;;13.89;54.82;100627.69;4984263;28;20227;-82
2022/04/21 12:10:42;;;;;;;5.77;3.80;;;;;;;13.88;54.83;100623.31;4973700;28;20208;-82
2022/04/21 12:13:09;;;;;;;5.47;3.47;;;;;;;13.90;54.43;100630.25;4983049;28;20666;-82
2022/04/21 12:15:38;;;;;;;6.13;3.60;;;;;;;13.87;54.55;100619.78;4981909;28;20286;-83
2022/04/21 12:18:05;;;;;;;5.53;3.73;;;;;;;13.89;54.59;100631.22;4984913;28;20204;-82
2022/04/21 12:20:33;;;;;;;5.20;3.90;;;;;;;13.88;54.64;100631.34;4978056;28;20471;-82
2022/04/21 12:23:00;;;;;;;6.30;3.87;;;;;;;13.86;54.45;100626.09;4978135;28;20585;-83
2022/04/21 12:25:31;;;;;;;5.13;3.20;;;;;;;13.84;55.21;100619.16;4981673;28;20224;-82
2022/04/21 12:28:02;;;;;;;5.30;3.77;;;;;;;13.83;54.74;100618.28;4980819;28;20203;-82
2022/04/21 12:30:29;;;;;;;5.10;3.77;;;;;;;13.81;55.25;100612.22;4983452;28;20295;-84
2022/04/21 12:32:55;;;;;;;5.77;3.73;;;;;;;13.78;55.08;100620.50;4982034;28;20219;-83
2022/04/21 12:35:45;;;;;;;5.57;3.90;;;;;;;13.73;54.98;100614.63;4986246;28;20235;-82